Time;durP1;ratioP1;P1;durP2;ratioP2;P2;SDS_P1;SDS_P2;PMS_P1;PMS_P2;Temp;Humidity;BMP_temperature;BMP_pressure;BME280_temperature;BME280_humidity;BME280_pressure;Samples;Min_cycle;Max_cycle;Signal;HPM_P1;HPM_P2
2022/07/03 00:01:38;;;;;;;7.00;3.55;;;;;;;;;;4966349;28;97749;-73
2022/07/03 00:04:04;;;;;;;8.70;3.55;;;;;;;;;;4968745;28;96029;-73
2022/07/03 00:06:32;;;;;;;5.63;3.20;;;;;;;;;;4986480;28;98902;-74
2022/07/03 00:08:59;;;;;;;5.65;3.10;;;;;;;;;;4987929;28;97985;-74
2022/07/03 00:11:26;;;;;;;5.15;3.20;;;;;;;;;;4988148;28;95399;-73
2022/07/03 00:13:52;;;;;;;5.85;3.30;;;;;;;;;;4988222;28;97384;-74
2022/07/03 00:16:19;;;;;;;6.78;3.42;;;;;;;;;;4987551;28;97829;-73
2022/07/03 00:18:46;;;;;;;5.93;3.10;;;;;;;;;;4988003;28;95353;-73
2022/07/03 00:21:41;;;;;;;6.38;3.22;;;;;;;;;;4986846;28;97126;-74
2022/07/03 00:24:08;;;;;;;8.23;3.30;;;;;;;;;;4984366;28;95428;-74
2022/07/03 00:26:37;;;;;;;9.70;3.35;;;;;;;;;;4986998;28;97414;-73
2022/07/03 00:29:06;;;;;;;7.45;3.00;;;;;;;;;;4991042;28;97787;-74
2022/07/03 00:31:33;;;;;;;8.68;3.22;;;;;;;;;;4991396;28;95751;-74
2022/07/03 00:34:01;;;;;;;10.27;5.68;;;;;;;;;;4991792;28;97437;-74
2022/07/03 00:36:34;;;;;;;9.32;4.35;;;;;;;;;;4990351;28;98346;-73
2022/07/03 00:39:01;;;;;;;13.27;4.30;;;;;;;;;;4991759;28;95245;-74
2022/07/03 00:41:29;;;;;;;13.63;4.28;;;;;;;;;;4990831;28;97035;-73
2022/07/03 00:43:56;;;;;;;19.50;4.25;;;;;;;;;;4975825;28;98212;-73
2022/07/03 00:46:23;;;;;;;8.25;3.78;;;;;;;;;;4995663;28;97324;-74
2022/07/03 00:48:50;;;;;;;5.82;3.45;;;;;;;;;;5009498;28;97643;-74
2022/07/03 00:51:21;;;;;;;17.50;3.95;;;;;;;;;;4977969;28;95941;-73
2022/07/03 00:53:50;;;;;;;9.20;3.50;;;;;;;;;;4987505;28;97598;-73
2022/07/03 00:56:19;;;;;;;16.08;3.67;;;;;;;;;;4989485;28;97899;-73
2022/07/03 00:58:45;;;;;;;5.25;3.20;;;;;;;;;;4971278;28;95870;-72
2022/07/03 01:01:15;;;;;;;11.48;4.05;;;;;;;;;;5008946;28;96717;-73
2022/07/03 01:03:44;;;;;;;11.88;4.03;;;;;;;;;;4994488;28;99457;-72
2022/07/03 01:06:13;;;;;;;7.75;3.88;;;;;;;;;;4993887;28;95405;-73
2022/07/03 01:08:48;;;;;;;7.78;4.28;;;;;;;;;;4990023;28;97893;-73
2022/07/03 01:11:23;;;;;;;6.60;3.97;;;;;;;;;;4972318;28;95417;-72
2022/07/03 01:13:56;;;;;;;7.15;4.05;;;;;;;;;;4991588;28;97382;-73
2022/07/03 01:16:43;;;;;;;5.07;3.60;;;;;;;;;;4990143;28;97976;-72
2022/07/03 01:19:25;;;;;;;5.78;3.65;;;;;;;;;;4988555;28;95449;-73
2022/07/03 01:21:57;;;;;;;7.53;3.63;;;;;;;;;;4991018;28;97502;-72
2022/07/03 01:24:46;;;;;;;5.93;3.45;;;;;;;;;;4971743;28;97605;-72
2022/07/03 01:27:16;;;;;;;12.20;3.92;;;;;;;;;;4989781;28;97016;-73
2022/07/03 01:29:52;;;;;;;5.97;3.63;;;;;;;;;;5002671;28;97466;-72
2022/07/03 01:32:23;;;;;;;7.20;3.95;;;;;;;;;;4970080;28;95541;-76
2022/07/03 01:34:51;;;;;;;7.82;3.97;;;;;;;;;;4970781;28;97712;-74
2022/07/03 01:37:19;;;;;;;15.57;4.30;;;;;;;;;;4956789;28;97813;-74
2022/07/03 01:39:48;;;;;;;8.60;3.80;;;;;;;;;;4990101;28;95389;-74
2022/07/03 01:42:22;;;;;;;6.05;3.80;;;;;;;;;;4989007;28;96212;-74
2022/07/03 01:44:51;;;;;;;7.13;3.70;;;;;;;;;;4989906;28;97749;-73
2022/07/03 01:47:17;;;;;;;8.48;3.60;;;;;;;;;;4990054;28;96037;-73
2022/07/03 01:49:44;;;;;;;6.35;3.65;;;;;;;;;;4989226;28;97296;-73
2022/07/03 01:52:11;;;;;;;5.13;3.45;;;;;;;;;;4992520;28;97534;-74
2022/07/03 01:54:59;;;;;;;7.65;3.80;;;;;;;;;;4997196;28;98497;-73
2022/07/03 01:57:34;;;;;;;5.20;3.83;;;;;;;;;;5009933;28;98183;-74
2022/07/03 02:00:01;;;;;;;7.10;3.75;;;;;;;;;;4991997;28;95395;-74
2022/07/03 02:02:32;;;;;;;7.30;4.22;;;;;;;;;;4978653;28;97375;-73
2022/07/03 02:05:00;;;;;;;7.40;4.33;;;;;;;;;;4989783;28;97946;-74
2022/07/03 02:07:40;;;;;;;5.95;3.85;;;;;;;;;;4989631;28;95965;-73
2022/07/03 02:10:07;;;;;;;6.57;4.00;;;;;;;;;;5004275;28;97320;-73
2022/07/03 02:12:37;;;;;;;8.38;4.10;;;;;;;;;;5010065;28;98214;-73
2022/07/03 02:15:05;;;;;;;8.20;3.78;;;;;;;;;;4988913;28;97311;-73
2022/07/03 02:17:38;;;;;;;6.60;3.90;;;;;;;;;;4971685;28;97668;-74
2022/07/03 02:20:10;;;;;;;5.57;4.18;;;;;;;;;;4989701;28;95917;-74
2022/07/03 02:22:42;;;;;;;6.80;4.20;;;;;;;;;;4993096;28;97694;-74
2022/07/03 02:25:13;;;;;;;7.45;4.10;;;;;;;;;;5008136;28;97724;-73
2022/07/03 02:27:46;;;;;;;8.70;4.07;;;;;;;;;;4989025;28;95875;-73
2022/07/03 02:30:13;;;;;;;10.27;4.53;;;;;;;;;;4972160;28;97703;-74
2022/07/03 02:32:44;;;;;;;7.72;4.40;;;;;;;;;;4989167;28;97573;-74
2022/07/03 02:35:11;;;;;;;10.50;4.22;;;;;;;;;;4992523;28;95362;-74
2022/07/03 02:37:41;;;;;;;5.70;4.10;;;;;;;;;;4997007;28;97624;-74
2022/07/03 02:40:09;;;;;;;9.52;4.47;;;;;;;;;;4970875;28;95422;-73
2022/07/03 02:42:39;;;;;;;6.28;4.10;;;;;;;;;;4986733;28;96939;-73
2022/07/03 02:45:08;;;;;;;6.15;4.40;;;;;;;;;;4989596;28;97481;-73
2022/07/03 02:47:45;;;;;;;7.53;4.20;;;;;;;;;;4989324;28;95270;-73
2022/07/03 02:50:15;;;;;;;8.57;4.38;;;;;;;;;;4981068;28;97179;-74
2022/07/03 02:52:44;;;;;;;5.90;3.80;;;;;;;;;;5001718;28;99222;-74
2022/07/03 02:55:20;;;;;;;7.85;4.20;;;;;;;;;;5005601;28;95596;-73
2022/07/03 02:57:49;;;;;;;9.02;4.22;;;;;;;;;;4992137;28;97563;-72
2022/07/03 03:00:16;;;;;;;8.00;4.20;;;;;;;;;;4989208;28;95705;-73
2022/07/03 03:02:57;;;;;;;11.65;4.70;;;;;;;;;;4988855;28;97473;-73
2022/07/03 03:05:28;;;;;;;6.70;4.40;;;;;;;;;;4988440;28;97806;-73
2022/07/03 03:08:22;;;;;;;7.95;4.18;;;;;;;;;;4989309;28;95739;-73
2022/07/03 03:10:50;;;;;;;10.77;3.90;;;;;;;;;;5001337;28;96569;-74
2022/07/03 03:13:19;;;;;;;8.10;4.10;;;;;;;;;;4995025;28;96975;-72
2022/07/03 03:15:58;;;;;;;6.18;3.75;;;;;;;;;;4988697;28;95492;-73
2022/07/03 03:18:27;;;;;;;6.60;4.00;;;;;;;;;;4987229;28;97369;-73
2022/07/03 03:20:55;;;;;;;7.85;4.10;;;;;;;;;;4991982;28;97896;-73
2022/07/03 03:23:30;;;;;;;5.57;3.80;;;;;;;;;;4988777;28;97444;-74
2022/07/03 03:25:58;;;;;;;5.47;3.53;;;;;;;;;;5001264;28;98205;-73
2022/07/03 03:28:25;;;;;;;7.93;4.05;;;;;;;;;;4973492;28;95291;-73
2022/07/03 03:30:52;;;;;;;14.60;3.97;;;;;;;;;;4988411;28;96579;-73
2022/07/03 03:33:19;;;;;;;13.43;3.90;;;;;;;;;;4999411;28;97751;-74
2022/07/03 03:35:45;;;;;;;7.88;4.25;;;;;;;;;;5008937;28;96192;-73
2022/07/03 03:38:12;;;;;;;7.55;3.78;;;;;;;;;;5007130;28;97650;-73
2022/07/03 03:40:38;;;;;;;5.93;4.00;;;;;;;;;;5003620;28;97992;-73
2022/07/03 03:43:05;;;;;;;6.63;4.10;;;;;;;;;;5001667;28;95430;-72
2022/07/03 03:45:32;;;;;;;5.60;4.00;;;;;;;;;;5007796;28;98038;-73
2022/07/03 03:47:58;;;;;;;5.75;4.00;;;;;;;;;;4993429;28;95885;-73
2022/07/03 03:50:25;;;;;;;8.48;4.50;;;;;;;;;;4980462;28;97296;-73
2022/07/03 03:52:51;;;;;;;5.55;4.00;;;;;;;;;;4967978;28;98195;-73
2022/07/03 03:55:18;;;;;;;7.15;3.65;;;;;;;;;;4968364;28;95391;-73
2022/07/03 03:57:44;;;;;;;11.27;4.03;;;;;;;;;;4991674;28;97262;-72
2022/07/03 04:00:11;;;;;;;6.70;3.63;;;;;;;;;;4991505;28;97734;-73
2022/07/03 20:38:54;;;;;;;5.05;1.90;;;;;;;;;;5063501;27;1304038;-77
2022/07/03 20:41:28;;;;;;;4.93;2.00;;;;;;;;;;5095956;27;97617;-77
2022/07/03 20:43:55;;;;;;;5.07;1.80;;;;;;;;;;5086584;27;95439;-75
2022/07/03 20:46:22;;;;;;;2.95;1.58;;;;;;;;;;5091422;27;96882;-77
2022/07/03 20:48:49;;;;;;;6.10;1.98;;;;;;;;;;5105541;27;97400;-74
2022/07/03 20:51:17;;;;;;;5.57;1.95;;;;;;;;;;5098998;27;96212;-71
2022/07/03 20:53:46;;;;;;;4.80;1.77;;;;;;;;;;5098697;27;96730;-77
2022/07/03 20:56:15;;;;;;;3.53;1.60;;;;;;;;;;5100654;27;97328;-76
2022/07/03 20:58:45;;;;;;;6.45;1.83;;;;;;;;;;5107482;27;96163;-76
2022/07/03 21:01:11;;;;;;;6.53;2.10;;;;;;;;;;5097860;27;96389;-76
2022/07/03 21:03:38;;;;;;;10.10;2.83;;;;;;;;;;5095948;27;95745;-76
2022/07/03 21:06:24;;;;;;;6.93;1.88;;;;;;;;;;5090418;27;96641;-76
2022/07/03 21:08:51;;;;;;;4.07;1.67;;;;;;;;;;5090716;27;96342;-76
2022/07/03 21:11:34;;;;;;;6.80;1.88;;;;;;;;;;5099809;27;95343;-76
2022/07/03 21:14:00;;;;;;;7.03;2.30;;;;;;;;;;5100409;27;96818;-73
2022/07/03 21:16:41;;;;;;;7.72;2.53;;;;;;;;;;5096139;27;99819;-76
2022/07/03 21:19:09;;;;;;;6.32;1.83;;;;;;;;;;5096252;27;95705;-76
2022/07/03 21:21:36;;;;;;;11.02;2.65;;;;;;;;;;5097830;27;96855;-77
2022/07/03 21:24:03;;;;;;;5.47;2.20;;;;;;;;;;5088797;27;95247;-76
2022/07/03 21:26:30;;;;;;;9.77;2.15;;;;;;;;;;5104406;27;97199;-75
2022/07/03 21:28:58;;;;;;;6.15;1.90;;;;;;;;;;5089439;27;97428;-76
2022/07/03 21:31:24;;;;;;;7.85;2.00;;;;;;;;;;5090200;27;96865;-75
2022/07/03 21:33:51;;;;;;;10.85;2.08;;;;;;;;;;5101612;27;96738;-75
2022/07/03 21:36:17;;;;;;;5.75;2.40;;;;;;;;;;5103764;27;97368;-76
2022/07/03 21:38:46;;;;;;;6.38;2.10;;;;;;;;;;5106267;27;95359;-75
2022/07/03 21:41:13;;;;;;;6.72;2.20;;;;;;;;;;5090111;27;95886;-76
2022/07/03 21:43:39;;;;;;;5.10;2.10;;;;;;;;;;5092482;27;96426;-76
2022/07/03 21:46:06;;;;;;;5.78;2.35;;;;;;;;;;5102215;27;96730;-74
2022/07/03 21:48:32;;;;;;;5.38;2.28;;;;;;;;;;5089948;27;97358;-76
2022/07/03 21:50:59;;;;;;;7.70;2.55;;;;;;;;;;5089315;27;95401;-76
2022/07/03 21:53:26;;;;;;;4.90;2.15;;;;;;;;;;5083150;27;97637;-76
2022/07/03 21:55:52;;;;;;;4.68;1.98;;;;;;;;;;5091334;27;97275;-75
2022/07/03 21:58:19;;;;;;;5.38;1.88;;;;;;;;;;5086837;27;96803;-76
2022/07/03 22:00:45;;;;;;;3.47;1.80;;;;;;;;;;5091228;27;96740;-76
2022/07/03 22:03:12;;;;;;;5.22;1.80;;;;;;;;;;5080145;27;97688;-76
2022/07/03 22:05:39;;;;;;;4.72;1.80;;;;;;;;;;5075398;27;95368;-76
2022/07/03 22:08:05;;;;;;;8.45;2.70;;;;;;;;;;5084542;27;97085;-76
2022/07/03 22:10:38;;;;;;;4.20;2.00;;;;;;;;;;5087386;27;95377;-76
2022/07/03 22:13:04;;;;;;;4.90;1.92;;;;;;;;;;5072398;27;97018;-76
2022/07/03 22:15:31;;;;;;;5.80;2.15;;;;;;;;;;5071715;27;97476;-76
2022/07/03 22:17:57;;;;;;;5.38;2.00;;;;;;;;;;5080619;27;97203;-76
2022/07/03 22:20:23;;;;;;;4.57;2.10;;;;;;;;;;5089213;27;96554;-76
2022/07/03 22:22:49;;;;;;;5.32;2.10;;;;;;;;;;5091134;27;97090;-76
2022/07/03 22:25:16;;;;;;;6.68;2.30;;;;;;;;;;5072578;27;95136;-75
2022/07/03 22:27:43;;;;;;;7.28;2.22;;;;;;;;;;5084207;27;96797;-76
2022/07/03 22:30:10;;;;;;;8.93;2.63;;;;;;;;;;5076594;27;96132;-76
2022/07/03 22:32:38;;;;;;;15.82;2.90;;;;;;;;;;5072789;27;96603;-76
2022/07/03 22:35:04;;;;;;;6.88;2.47;;;;;;;;;;5085651;27;97357;-77
2022/07/03 22:37:31;;;;;;;12.65;2.42;;;;;;;;;;5077890;27;96702;-76
2022/07/03 22:39:57;;;;;;;6.05;2.10;;;;;;;;;;5084889;27;96888;-76
2022/07/03 22:42:23;;;;;;;7.75;2.17;;;;;;;;;;5071437;27;97282;-77
2022/07/03 22:44:50;;;;;;;4.50;1.92;;;;;;;;;;5071149;27;96026;-76
2022/07/03 22:47:16;;;;;;;6.22;2.10;;;;;;;;;;5076332;27;96646;-76
2022/07/03 22:49:43;;;;;;;8.60;1.95;;;;;;;;;;5092915;27;95498;-76
2022/07/03 22:52:10;;;;;;;10.00;2.20;;;;;;;;;;5091225;27;97106;-77
2022/07/03 22:54:41;;;;;;;4.43;2.20;;;;;;;;;;5081886;27;97408;-77
2022/07/03 22:57:10;;;;;;;9.07;2.10;;;;;;;;;;5084447;27;95348;-75
2022/07/03 22:59:37;;;;;;;10.43;2.28;;;;;;;;;;5081537;27;96657;-76
2022/07/03 23:02:07;;;;;;;5.88;2.30;;;;;;;;;;5073288;27;97172;-76
2022/07/03 23:04:34;;;;;;;4.45;1.90;;;;;;;;;;5070600;27;95897;-76
2022/07/03 23:07:00;;;;;;;5.78;2.38;;;;;;;;;;5089861;27;96627;-75
2022/07/03 23:09:26;;;;;;;7.30;2.30;;;;;;;;;;5094321;27;96751;-76
2022/07/03 23:11:53;;;;;;;15.30;2.38;;;;;;;;;;5091897;27;96432;-76
2022/07/03 23:14:19;;;;;;;7.25;2.33;;;;;;;;;;5082322;27;97320;-75
2022/07/03 23:16:45;;;;;;;10.18;2.75;;;;;;;;;;5085830;27;95465;-76
2022/07/03 23:19:12;;;;;;;4.00;2.25;;;;;;;;;;5087257;27;96819;-77
2022/07/03 23:21:38;;;;;;;11.25;2.35;;;;;;;;;;5076658;27;97332;-77
2022/07/03 23:24:05;;;;;;;7.93;2.30;;;;;;;;;;5091151;27;95269;-77
2022/07/03 23:26:31;;;;;;;6.10;2.35;;;;;;;;;;5086579;27;96797;-76
2022/07/03 23:28:57;;;;;;;6.35;2.10;;;;;;;;;;5072375;27;97371;-76
2022/07/03 23:31:24;;;;;;;7.72;2.53;;;;;;;;;;5074160;27;95742;-76
2022/07/03 23:33:50;;;;;;;9.52;2.47;;;;;;;;;;5070272;27;97641;-76
2022/07/03 23:36:17;;;;;;;8.73;2.80;;;;;;;;;;5080024;27;95604;-75
2022/07/03 23:38:43;;;;;;;11.23;2.53;;;;;;;;;;5080116;27;97255;-76
2022/07/03 23:41:09;;;;;;;5.32;2.42;;;;;;;;;;5074345;27;97808;-76
2022/07/03 23:43:36;;;;;;;9.77;2.67;;;;;;;;;;5073471;27;95455;-77
2022/07/03 23:46:02;;;;;;;5.60;2.10;;;;;;;;;;5086451;27;96715;-76
2022/07/03 23:51:13;;;;;;;7.40;2.47;;;;;;;;;;5091608;27;95153;-76
2022/07/03 23:53:40;;;;;;;6.85;2.50;;;;;;;;;;5094025;27;96818;-76
2022/07/03 23:56:06;;;;;;;6.25;2.75;;;;;;;;;;5086713;27;95839;-76
2022/07/03 23:58:32;;;;;;;4.80;2.40;;;;;;;;;;5083397;27;95733;-76
